createdAt,value
2018-04-12T00:00:06.899Z,93877
2018-04-12T00:02:38.070Z,93870
2018-04-12T00:05:09.070Z,93868
2018-04-12T00:07:40.150Z,93858
2018-04-12T00:10:11.187Z,93861
2018-04-12T00:12:41.529Z,93859
2018-04-12T00:15:12.509Z,93870
2018-04-12T00:17:42.791Z,93865
2018-04-12T00:20:13.023Z,93868
2018-04-12T00:22:44.104Z,93865
2018-04-12T00:25:14.389Z,93836
2018-04-12T00:27:44.757Z,93832
2018-04-12T00:30:15.717Z,93847
2018-04-12T00:32:46.674Z,93832
2018-04-12T00:35:17.632Z,93825
2018-04-12T00:37:47.897Z,93821
2018-04-12T00:40:18.847Z,93828
2018-04-12T00:42:49.935Z,93814
2018-04-12T00:45:20.917Z,93811
2018-04-12T00:47:51.994Z,93811
2018-04-12T00:50:22.155Z,93806
2018-04-12T00:52:53.175Z,93812
2018-04-12T00:55:23.381Z,93803
2018-04-12T00:57:54.340Z,93802
2018-04-12T01:00:24.441Z,93805
2018-04-12T01:02:54.643Z,93807
2018-04-12T01:05:25.621Z,93806
2018-04-12T01:07:56.633Z,93801
2018-04-12T01:10:26.801Z,93797
2018-04-12T01:12:57.744Z,93798
2018-04-12T01:15:28.780Z,93797
2018-04-12T01:17:59.709Z,93797
2018-04-12T01:20:29.929Z,93811
2018-04-12T01:23:00.065Z,93796
2018-04-12T01:25:30.172Z,93807
2018-04-12T01:28:01.490Z,93805
2018-04-12T01:30:32.454Z,93822
2018-04-12T01:33:17.534Z,93818
2018-04-12T01:35:48.487Z,93821
2018-04-12T01:38:18.692Z,93828
2018-04-12T01:40:48.802Z,93821
2018-04-12T01:43:18.910Z,93834
2018-04-12T01:45:49.095Z,93842
2018-04-12T01:48:20.086Z,93820
2018-04-12T01:50:50.213Z,93829
2018-04-12T01:53:20.287Z,93838
2018-04-12T01:55:51.169Z,93841
2018-04-12T01:58:22.380Z,93843
2018-04-12T02:00:53.318Z,93846
2018-04-12T02:03:24.266Z,93854
2018-04-12T02:05:54.349Z,93874
2018-04-12T02:08:25.254Z,93877
2018-04-12T02:10:55.517Z,93878
2018-04-12T02:13:26.601Z,93885
2018-04-12T02:15:56.763Z,93899
2018-04-12T02:18:27.751Z,93898
2018-04-12T02:20:57.865Z,93887
2018-04-12T02:23:28.003Z,93873
2018-04-12T02:25:59.062Z,93845
2018-04-12T02:28:29.226Z,93835
2018-04-12T02:30:59.349Z,93830
2018-04-12T02:33:30.259Z,93829
2018-04-12T02:36:01.263Z,93825
2018-04-12T02:38:32.285Z,93816
2018-04-12T02:41:02.530Z,93801
2018-04-12T02:43:33.573Z,93795
2018-04-12T02:46:03.901Z,93800
2018-04-12T02:48:34.049Z,93799
2018-04-12T02:51:05.049Z,93786
2018-04-12T02:53:36.047Z,93782
2018-04-12T02:56:06.294Z,93788
2018-04-12T02:58:37.361Z,93789
2018-04-12T03:01:07.606Z,93788
2018-04-12T03:03:38.671Z,93793
2018-04-12T03:06:09.701Z,93798
2018-04-12T03:08:39.883Z,93804
2018-04-12T03:11:09.959Z,93806
2018-04-12T03:13:40.082Z,93784
2018-04-12T03:16:10.200Z,93804
2018-04-12T03:18:40.351Z,93813
2018-04-12T03:21:11.390Z,93824
2018-04-12T03:23:41.609Z,93814
2018-04-12T03:26:12.631Z,93819
2018-04-12T03:28:43.610Z,93817
2018-04-12T03:31:14.653Z,93829
2018-04-12T03:33:45.570Z,93825
2018-04-12T03:36:15.664Z,93828
2018-04-12T03:38:45.853Z,93827
2018-04-12T03:41:15.926Z,93823
2018-04-12T03:43:46.906Z,93817
2018-04-12T03:46:17.905Z,93818
2018-04-12T03:48:48.791Z,93812
2018-04-12T03:51:19.677Z,93817
2018-04-12T03:53:49.849Z,93814
2018-04-12T03:56:19.964Z,93806
2018-04-12T03:58:50.147Z,93792
2018-04-12T04:01:21.058Z,93790
2018-04-12T04:03:51.171Z,93784
2018-04-12T04:06:22.086Z,93773
2018-04-12T04:08:53.156Z,93776
2018-04-12T04:11:23.280Z,93771
2018-04-12T04:13:53.556Z,93759
2018-04-12T04:16:41.526Z,93771
2018-04-12T04:19:30.280Z,93761
2018-04-12T04:22:01.206Z,93770
2018-04-12T04:24:32.237Z,93783
2018-04-12T04:27:03.302Z,93782
2018-04-12T04:29:34.353Z,93787
2018-04-12T04:32:05.430Z,93777
2018-04-12T04:34:35.758Z,93776
2018-04-12T04:37:06.929Z,93774
2018-04-12T04:39:38.113Z,93771
2018-04-12T04:42:08.250Z,93764
2018-04-12T04:44:38.439Z,93768
2018-04-12T04:47:09.409Z,93770
2018-04-12T04:49:39.523Z,93775
2018-04-12T04:52:09.591Z,93784
2018-04-12T04:54:40.624Z,93779
2018-04-12T04:57:11.025Z,93762
2018-04-12T04:59:41.417Z,93759
2018-04-12T05:02:11.797Z,93752
2018-04-12T05:04:41.909Z,93772
2018-04-12T05:07:12.759Z,93778
2018-04-12T05:09:43.809Z,93761
2018-04-12T05:12:14.903Z,93773
2018-04-12T05:14:45.141Z,93778
2018-04-12T05:17:16.094Z,93761
2018-04-12T05:19:47.381Z,93772
2018-04-12T05:22:17.713Z,93784
2018-04-12T05:24:47.905Z,93780
2018-04-12T05:27:19.352Z,93776
2018-04-12T05:29:49.744Z,93786
2018-04-12T05:32:20.854Z,93791
2018-04-12T05:34:51.110Z,93791
2018-04-12T05:37:22.206Z,93789
2018-04-12T05:39:52.494Z,93785
2018-04-12T05:42:22.800Z,93784
2018-04-12T05:44:53.957Z,93780
2018-04-12T05:47:24.243Z,93786
2018-04-12T05:49:55.444Z,93779
2018-04-12T05:52:25.690Z,93766
2018-04-12T05:54:55.852Z,93766
2018-04-12T05:57:26.819Z,93773
2018-04-12T05:59:57.744Z,93779
2018-04-12T06:02:28.726Z,93788
2018-04-12T06:04:58.986Z,93784
2018-04-12T06:07:29.887Z,93771
2018-04-12T06:10:01.061Z,93793
2018-04-12T06:12:32.342Z,93801
2018-04-12T06:15:02.525Z,93791
2018-04-12T06:17:33.495Z,93790
2018-04-12T06:20:03.752Z,93796
2018-04-12T06:22:33.943Z,93806
2018-04-12T06:25:04.984Z,93800
2018-04-12T06:27:35.105Z,93808
2018-04-12T06:30:06.048Z,93822
2018-04-12T06:32:36.213Z,93820
2018-04-12T06:35:06.342Z,93805
2018-04-12T06:37:37.321Z,93814
2018-04-12T06:40:08.261Z,93810
2018-04-12T06:42:39.212Z,93811
2018-04-12T06:45:09.544Z,93816
2018-04-12T06:47:39.684Z,93818
2018-04-12T06:50:09.906Z,93815
2018-04-12T06:52:40.044Z,93799
2018-04-12T06:55:11.097Z,93807
2018-04-12T06:57:42.054Z,93804
2018-04-12T07:00:12.266Z,93795
2018-04-12T07:02:43.221Z,93797
2018-04-12T07:05:14.243Z,93799
2018-04-12T07:07:45.159Z,93822
2018-04-12T07:10:16.173Z,93832
2018-04-12T07:12:46.349Z,93833
2018-04-12T07:15:16.530Z,93848
2018-04-12T07:17:47.599Z,93856
2018-04-12T07:20:18.550Z,93859
2018-04-12T07:22:49.494Z,93860
2018-04-12T07:25:20.409Z,93849
2018-04-12T07:27:51.390Z,93850
2018-04-12T07:30:21.606Z,93853
2018-04-12T07:32:51.838Z,93852
2018-04-12T07:35:22.078Z,93854
2018-04-12T07:37:52.361Z,93857
2018-04-12T07:40:23.397Z,93855
2018-04-12T07:42:54.470Z,93851
2018-04-12T07:45:24.659Z,93841
2018-04-12T07:47:54.899Z,93849
2018-04-12T07:50:25.053Z,93852
2018-04-12T07:52:55.582Z,93868
2018-04-12T07:55:25.880Z,93868
2018-04-12T07:57:56.166Z,93866
2018-04-12T08:00:27.125Z,93870
2018-04-12T08:02:58.210Z,93866
2018-04-12T08:05:29.554Z,93868
2018-04-12T08:07:59.786Z,93873
2018-04-12T08:10:30.813Z,93876
2018-04-12T08:13:00.960Z,93877
2018-04-12T08:15:32.774Z,93876
2018-04-12T08:18:02.931Z,93881
2018-04-12T08:20:34.109Z,93887
2018-04-12T08:23:05.223Z,93893
2018-04-12T08:25:36.401Z,93900
2018-04-12T08:28:07.331Z,93903
2018-04-12T08:30:38.854Z,93908
2018-04-12T08:33:09.825Z,93906
2018-04-12T08:35:40.762Z,93906
2018-04-12T08:38:11.750Z,93904
2018-04-12T08:40:42.877Z,93901
2018-04-12T08:43:13.147Z,93909
2018-04-12T08:45:44.100Z,93916
2018-04-12T08:48:15.686Z,93916
2018-04-12T08:50:46.830Z,93907
2018-04-12T08:53:17.164Z,93902
2018-04-12T08:55:48.279Z,93899
2018-04-12T08:58:18.510Z,93907
2018-04-12T09:00:48.954Z,93905
2018-04-12T09:03:19.246Z,93901
2018-04-12T09:05:49.484Z,93912
2018-04-12T09:08:19.626Z,93908
2018-04-12T09:10:49.971Z,93908
2018-04-12T09:13:20.111Z,93920
2018-04-12T09:15:51.057Z,93917
2018-04-12T09:18:22.026Z,93903
2018-04-12T09:20:52.232Z,93914
2018-04-12T09:23:23.163Z,93916
2018-04-12T09:25:53.801Z,93924
2018-04-12T09:28:23.944Z,93927
2018-04-12T09:30:54.177Z,93917
2018-04-12T09:33:24.407Z,93925
2018-04-12T09:35:54.606Z,93925
2018-04-12T09:38:24.789Z,93929
2018-04-12T09:40:55.805Z,93923
2018-04-12T09:43:26.773Z,93922
2018-04-12T09:45:57.761Z,93920
2018-04-12T09:48:28.085Z,93917
2018-04-12T09:50:58.390Z,93916
2018-04-12T09:53:28.686Z,93917
2018-04-12T09:55:58.993Z,93916
2018-04-12T09:58:30.015Z,93929
2018-04-12T10:01:01.345Z,93925
2018-04-12T10:03:31.609Z,93937
2018-04-12T10:06:05.579Z,93920
2018-04-12T10:08:35.884Z,93913
2018-04-12T10:11:06.103Z,93923
2018-04-12T10:13:36.315Z,93918
2018-04-12T10:16:06.589Z,93915
2018-04-12T10:18:37.725Z,93912
2018-04-12T10:21:08.124Z,93910
2018-04-12T10:23:38.329Z,93912
2018-04-12T10:26:08.503Z,93914
2018-04-12T10:28:38.808Z,93929
2018-04-12T10:31:09.964Z,93913
2018-04-12T10:33:40.296Z,93923
2018-04-12T10:36:10.585Z,93935
2018-04-12T10:38:40.909Z,93928
2018-04-12T10:41:11.209Z,93929
2018-04-12T10:43:42.295Z,93938
2018-04-12T10:46:12.595Z,93948
2018-04-12T10:48:42.924Z,93946
2018-04-12T10:51:13.190Z,93940
2018-04-12T10:53:43.587Z,93958
2018-04-12T10:56:13.899Z,93954
2018-04-12T10:58:44.257Z,93938
2018-04-12T11:01:15.264Z,93952
2018-04-12T11:03:45.511Z,93950
2018-04-12T11:06:16.481Z,93950
2018-04-12T11:08:47.554Z,93957
2018-04-12T11:11:17.921Z,93954
2018-04-12T11:13:48.257Z,93953
2018-04-12T11:16:19.537Z,93965
2018-04-12T11:18:50.624Z,93970
2018-04-12T11:21:21.791Z,93965
2018-04-12T11:23:52.224Z,93961
2018-04-12T11:26:23.320Z,93962
2018-04-12T11:28:53.724Z,93974
2018-04-12T11:31:24.007Z,93966
2018-04-12T11:33:55.103Z,93973
2018-04-12T11:36:26.285Z,93980
2018-04-12T11:38:57.276Z,93968
2018-04-12T11:41:27.570Z,93959
2018-04-12T11:43:57.789Z,93975
2018-04-12T11:46:28.925Z,93976
2018-04-12T11:49:00.008Z,93975
2018-04-12T11:51:30.208Z,93981
2018-04-12T11:54:00.378Z,93992
2018-04-12T11:56:31.409Z,93994
2018-04-12T11:59:02.729Z,93981
2018-04-12T12:01:33.949Z,93978
2018-04-12T12:04:04.200Z,93974
2018-04-12T12:06:35.371Z,93978
2018-04-12T12:09:06.692Z,93977
2018-04-12T12:11:37.712Z,93957
2018-04-12T12:14:08.710Z,93983
2018-04-12T12:16:40.024Z,93979
2018-04-12T12:19:10.163Z,93983
2018-04-12T12:21:40.348Z,93971
2018-04-12T12:24:10.663Z,93986
2018-04-12T12:26:41.085Z,93992
2018-04-12T12:29:11.261Z,94005
2018-04-12T12:31:42.494Z,93993
2018-04-12T12:34:13.562Z,94004
2018-04-12T12:36:44.574Z,94005
2018-04-12T12:39:20.170Z,94007
2018-04-12T12:41:53.778Z,94014
2018-04-12T12:44:23.924Z,94014
2018-04-12T12:46:54.249Z,94013
2018-04-12T12:49:25.385Z,94015
2018-04-12T12:51:55.791Z,94017
2018-04-12T12:54:27.106Z,94006
2018-04-12T12:56:57.382Z,94020
2018-04-12T12:59:30.929Z,94021
2018-04-12T13:02:02.308Z,94027
2018-04-12T13:04:33.474Z,94028
2018-04-12T13:25:39.777Z,94031
2018-04-12T13:28:10.035Z,94037
2018-04-12T13:30:40.987Z,94049
2018-04-12T13:33:11.950Z,94024
2018-04-12T13:35:42.144Z,94030
2018-04-12T13:38:13.059Z,94043
2018-04-12T13:40:43.323Z,94022
2018-04-12T13:43:13.757Z,94038
2018-04-12T13:45:44.009Z,94045
2018-04-12T13:48:14.241Z,94024
2018-04-12T13:50:45.280Z,94028
2018-04-12T13:53:15.458Z,94030
2018-04-12T13:55:46.038Z,94027
2018-04-12T13:58:17.322Z,94031
2018-04-12T14:00:48.266Z,94036
2018-04-12T14:03:19.159Z,94028
2018-04-12T14:05:49.320Z,94028
2018-04-12T14:08:20.342Z,94027
2018-04-12T14:10:50.565Z,94033
2018-04-12T14:13:21.810Z,94041
2018-04-12T14:15:53.184Z,94027
2018-04-12T14:18:23.448Z,94028
2018-04-12T14:20:54.448Z,94032
2018-04-12T14:23:24.767Z,94029
2018-04-12T14:25:54.953Z,94029
2018-04-12T14:28:26.362Z,94029
2018-04-12T14:30:56.554Z,94040
2018-04-12T14:33:26.726Z,94024
2018-04-12T14:35:56.957Z,94024
2018-04-12T14:38:27.961Z,94027
2018-04-12T14:40:58.176Z,94030
2018-04-12T14:43:28.375Z,94020
2018-04-12T14:45:59.251Z,94024
2018-04-12T14:48:29.673Z,94027
2018-04-12T14:51:00.698Z,94021
2018-04-12T14:53:31.002Z,94036
2018-04-12T14:56:01.885Z,94025
2018-04-12T14:58:32.052Z,94028
2018-04-12T15:01:02.634Z,94020
2018-04-12T15:03:32.868Z,94020
2018-04-12T15:06:03.850Z,94015
2018-04-12T15:08:34.088Z,94016
2018-04-12T15:11:04.290Z,94019
2018-04-12T15:13:34.580Z,94013
2018-04-12T15:16:04.745Z,94006
2018-04-12T15:18:35.013Z,94011
2018-04-12T15:21:05.230Z,94011
2018-04-12T15:23:35.440Z,94010
2018-04-12T15:26:05.675Z,94010
2018-04-12T15:28:36.732Z,94019
2018-04-12T15:31:06.969Z,94021
2018-04-12T15:33:37.224Z,94024
2018-04-12T15:36:07.498Z,94027
2018-04-12T15:38:38.561Z,94024
2018-04-12T15:41:09.464Z,94022
2018-04-12T15:43:39.624Z,94026
2018-04-12T15:46:09.826Z,94024
2018-04-12T15:48:40.796Z,94028
2018-04-12T15:51:11.806Z,94023
2018-04-12T15:53:42.869Z,94023
2018-04-12T15:56:13.158Z,94026
2018-04-12T15:58:43.347Z,94024
2018-04-12T16:01:13.607Z,94024
2018-04-12T16:03:43.782Z,94022
2018-04-12T16:06:14.724Z,94029
2018-04-12T16:08:45.723Z,94029
2018-04-12T16:11:16.040Z,94035
2018-04-12T16:13:46.165Z,94029
2018-04-12T16:16:16.567Z,94033
2018-04-12T16:18:46.764Z,94030
2018-04-12T16:21:17.939Z,94027
2018-04-12T16:23:48.140Z,94026
2018-04-12T16:26:18.406Z,94034
2018-04-12T16:28:48.592Z,94015
2018-04-12T16:31:19.545Z,94014
2018-04-12T16:33:49.687Z,94007
2018-04-12T16:36:19.787Z,94003
2018-04-12T16:38:49.908Z,94006
2018-04-12T16:41:20.138Z,93999
2018-04-12T16:43:51.138Z,93989
2018-04-12T16:46:21.264Z,93995
2018-04-12T16:48:51.454Z,93984
2018-04-12T16:51:22.365Z,93984
2018-04-12T16:53:53.253Z,93982
2018-04-12T16:56:23.564Z,93978
2018-04-12T16:58:54.249Z,93974
2018-04-12T17:01:25.424Z,93965
2018-04-12T17:03:56.711Z,93966
2018-04-12T17:06:27.676Z,93958
2018-04-12T17:08:57.985Z,93959
2018-04-12T17:11:28.216Z,93964
2018-04-12T17:13:58.537Z,93962
2018-04-12T17:16:28.743Z,93953
2018-04-12T17:18:59.726Z,93956
2018-04-12T17:21:30.734Z,93954
2018-04-12T17:24:00.887Z,93956
2018-04-12T17:26:31.809Z,93964
2018-04-12T17:29:02.061Z,93959
2018-04-12T17:31:32.977Z,93947
2018-04-12T17:34:03.900Z,93947
2018-04-12T17:36:34.038Z,93940
2018-04-12T17:39:05.259Z,93936
2018-04-12T17:41:35.482Z,93939
2018-04-12T17:44:05.704Z,93935
2018-04-12T17:46:36.666Z,93934
2018-04-12T17:49:07.617Z,93925
2018-04-12T17:51:38.722Z,93921
2018-04-12T17:54:08.878Z,93936
2018-04-12T17:56:39.136Z,93937
2018-04-12T17:59:09.260Z,93941
2018-04-12T18:01:40.426Z,93941
2018-04-12T18:04:11.488Z,93946
2018-04-12T18:06:41.646Z,93944
2018-04-12T18:09:11.787Z,93947
2018-04-12T18:11:41.954Z,93949
2018-04-12T18:14:12.160Z,93949
2018-04-12T18:16:43.453Z,93951
2018-04-12T18:19:14.347Z,93947
2018-04-12T18:21:44.465Z,93952
2018-04-12T18:24:15.349Z,93955
2018-04-12T18:26:45.378Z,93963
2018-04-12T18:29:16.272Z,93965
2018-04-12T18:31:47.096Z,93964
2018-04-12T18:34:20.104Z,93969
2018-04-12T18:36:50.465Z,93976
2018-04-12T18:39:20.642Z,93983
2018-04-12T18:41:51.525Z,93980
2018-04-12T18:44:23.235Z,93980
2018-04-12T18:46:55.276Z,93981
2018-04-12T18:49:25.997Z,93977
2018-04-12T18:51:57.328Z,93979
2018-04-12T18:54:28.246Z,93975
2018-04-12T18:56:59.182Z,93971
2018-04-12T18:59:30.085Z,93973
2018-04-12T19:02:03.265Z,93977
2018-04-12T19:04:36.439Z,93975
2018-04-12T19:07:06.948Z,93982
2018-04-12T19:09:37.098Z,93973
2018-04-12T19:12:07.149Z,93972
2018-04-12T19:14:38.007Z,93964
2018-04-12T19:17:08.313Z,93967
2018-04-12T19:19:39.318Z,93969
2018-04-12T19:22:09.470Z,93975
2018-04-12T19:24:40.445Z,93970
2018-04-12T19:27:10.830Z,93974
2018-04-12T19:29:41.733Z,93981
2018-04-12T19:32:12.006Z,93983
2018-04-12T19:34:42.926Z,93990
2018-04-12T19:37:13.040Z,93992
2018-04-12T19:39:43.961Z,93987
2018-04-12T19:42:14.948Z,93990
2018-04-12T19:44:46.296Z,93986
2018-04-12T19:47:17.345Z,93991
2018-04-12T19:49:48.396Z,93986
2018-04-12T19:52:18.559Z,93978
2018-04-12T19:54:48.723Z,93982
2018-04-12T19:57:18.831Z,93981
2018-04-12T19:59:49.077Z,93989
2018-04-12T20:02:20.063Z,93978
2018-04-12T20:04:51.039Z,93974
2018-04-12T20:07:22.060Z,93979
2018-04-12T20:09:52.191Z,93982
2018-04-12T20:12:23.227Z,93986
2018-04-12T20:14:54.154Z,93980
2018-04-12T20:17:25.114Z,93979
2018-04-12T20:19:56.266Z,93978
2018-04-12T20:22:26.370Z,93971
2018-04-12T20:24:58.104Z,93973
2018-04-12T20:27:28.495Z,93973
2018-04-12T20:29:58.662Z,93973
2018-04-12T20:32:29.611Z,93974
2018-04-12T20:35:00.542Z,93965
2018-04-12T20:37:30.887Z,93969
2018-04-12T20:40:00.956Z,93979
2018-04-12T20:42:31.829Z,93979
2018-04-12T20:45:01.918Z,93980
2018-04-12T20:47:32.858Z,93977
2018-04-12T20:50:03.010Z,93973
2018-04-12T20:52:33.483Z,93971
2018-04-12T20:55:03.714Z,93979
2018-04-12T20:57:34.687Z,93986
2018-04-12T21:00:05.847Z,93980
2018-04-12T21:02:35.997Z,93975
2018-04-12T21:05:07.093Z,93972
2018-04-12T21:07:38.168Z,93973
2018-04-12T21:10:08.359Z,93973
2018-04-12T21:12:39.185Z,93975
2018-04-12T21:15:10.344Z,93968
2018-04-12T21:17:40.518Z,93970
2018-04-12T21:20:11.577Z,93974
2018-04-12T21:22:42.492Z,93983
2018-04-12T21:25:13.338Z,93981
2018-04-12T21:27:44.351Z,93981
2018-04-12T21:30:14.516Z,93975
2018-04-12T21:32:45.398Z,93982
2018-04-12T21:35:15.448Z,93977
2018-04-12T21:37:45.507Z,93976
2018-04-12T21:40:15.646Z,93968
2018-04-12T21:42:46.893Z,93968
2018-04-12T21:45:16.967Z,93967
2018-04-12T21:47:47.874Z,93963
2018-04-12T21:50:17.936Z,93959
2018-04-12T21:52:49.518Z,93963
2018-04-12T21:55:19.656Z,93963
2018-04-12T21:57:49.737Z,93963
2018-04-12T22:00:21.759Z,93959
2018-04-12T22:02:52.700Z,93960
2018-04-12T22:05:23.637Z,93954
2018-04-12T22:07:53.869Z,93943
2018-04-12T22:10:24.717Z,93942
2018-04-12T22:12:55.573Z,93944
2018-04-12T22:15:26.500Z,93947
2018-04-12T22:17:57.297Z,93949
2018-04-12T22:20:28.157Z,93952
2018-04-12T22:22:59.086Z,93951
2018-04-12T22:25:30.063Z,93944
2018-04-12T22:28:00.124Z,93941
2018-04-12T22:30:30.273Z,93939
2018-04-12T22:33:00.415Z,93934
2018-04-12T22:35:31.233Z,93935
2018-04-12T22:38:02.868Z,93933
2018-04-12T22:40:33.816Z,93936
2018-04-12T22:43:05.053Z,93934
2018-04-12T22:45:35.937Z,93936
2018-04-12T22:48:06.017Z,93934
2018-04-12T22:50:36.106Z,93938
2018-04-12T22:53:07.915Z,93929
2018-04-12T22:55:39.062Z,93934
2018-04-12T22:58:10.012Z,93931
2018-04-12T23:00:40.097Z,93932
2018-04-12T23:03:11.191Z,93931
2018-04-12T23:05:41.358Z,93932
2018-04-12T23:08:11.502Z,93933
2018-04-12T23:10:42.230Z,93934
2018-04-12T23:13:12.333Z,93931
2018-04-12T23:15:42.724Z,93935
2018-04-12T23:18:13.630Z,93942
2018-04-12T23:20:43.826Z,93940
2018-04-12T23:23:14.737Z,93930
2018-04-12T23:25:44.829Z,93938
2018-04-12T23:28:15.058Z,93947
2018-04-12T23:30:46.009Z,93937
2018-04-12T23:33:16.941Z,93936
2018-04-12T23:35:47.292Z,93927
2018-04-12T23:38:17.360Z,93924
2018-04-12T23:40:47.657Z,93922
2018-04-12T23:43:17.678Z,93926
2018-04-12T23:45:47.766Z,93923
2018-04-12T23:48:18.708Z,93927
2018-04-12T23:50:48.768Z,93926
2018-04-12T23:53:18.918Z,93926
2018-04-12T23:55:49.786Z,93917
2018-04-12T23:58:20.766Z,93919
